Time;durP1;ratioP1;P1;durP2;ratioP2;P2;SDS_P1;SDS_P2;PMS_P1;PMS_P2;Temp;Humidity;BMP_temperature;BMP_pressure;BME280_temperature;BME280_humidity;BME280_pressure;Samples;Min_cycle;Max_cycle;Signal;HPM_P1;HPM_P2
2022/04/30 00:02:19;;;;;;;9.13;4.63;;;;;;;8.39;63.68;102785.06;5226289;28;20027;-77
2022/04/30 00:04:51;;;;;;;10.23;4.80;;;;;;;8.42;63.26;102786.72;5225408;28;20052;-76
2022/04/30 00:07:22;;;;;;;12.20;4.63;;;;;;;8.31;63.80;102790.41;5226978;28;20049;-76
2022/04/30 00:09:54;;;;;;;6.40;4.40;;;;;;;8.29;63.84;102791.34;5226761;28;20121;-71
2022/04/30 00:12:25;;;;;;;7.93;4.60;;;;;;;8.22;64.31;102781.00;5227771;28;20439;-77
2022/04/30 00:14:57;;;;;;;9.23;4.40;;;;;;;8.28;64.36;102784.38;5227362;28;20041;-76
2022/04/30 00:17:28;;;;;;;6.83;4.30;;;;;;;8.19;64.45;102788.91;5226566;28;20040;-76
2022/04/30 00:20:00;;;;;;;7.60;4.57;;;;;;;8.12;64.97;102789.88;5227128;28;20025;-76
2022/04/30 00:22:31;;;;;;;8.43;4.70;;;;;;;8.17;64.87;102792.44;5227576;28;20029;-77
2022/04/30 00:25:02;;;;;;;8.00;4.50;;;;;;;8.06;65.14;102780.44;5227866;28;20034;-76
2022/04/30 00:27:34;;;;;;;6.87;4.00;;;;;;;8.21;64.51;102784.50;5225532;28;20484;-76
2022/04/30 00:30:06;;;;;;;8.13;4.20;;;;;;;8.04;65.49;102787.44;5227313;28;20033;-76
2022/04/30 00:32:37;;;;;;;11.37;4.67;;;;;;;8.02;65.37;102783.13;5225511;28;20074;-76
2022/04/30 00:35:09;;;;;;;7.93;4.17;;;;;;;7.97;65.09;102789.28;5227109;28;20052;-77
2022/04/30 00:37:41;;;;;;;6.67;4.20;;;;;;;7.94;65.90;102781.50;5225219;28;20106;-76
2022/04/30 00:40:12;;;;;;;8.73;4.10;;;;;;;7.96;65.89;102784.06;5226120;28;20033;-76
2022/04/30 00:42:43;;;;;;;7.57;4.20;;;;;;;7.88;66.12;102784.22;5227478;28;20064;-76
2022/04/30 00:45:15;;;;;;;8.37;4.07;;;;;;;7.92;65.88;102772.84;5226468;28;20656;-77
2022/04/30 00:47:46;;;;;;;6.77;4.00;;;;;;;7.73;66.55;102774.91;5224384;28;20515;-76
2022/04/30 00:50:21;;;;;;;11.90;4.50;;;;;;;7.84;66.36;102766.88;5227043;28;20045;-76
2022/04/30 00:52:53;;;;;;;10.95;4.05;;;;;;;7.63;66.97;102774.19;5226854;28;20032;-76
2022/04/30 00:55:29;;;;;;;7.20;4.30;;;;;;;7.70;67.20;102762.78;5226571;28;20025;-77
2022/04/30 00:58:04;;;;;;;8.40;4.83;;;;;;;7.61;67.16;102768.16;5226729;28;20038;-76
2022/04/30 01:00:38;;;;;;;5.80;3.73;;;;;;;7.67;66.83;102760.22;5226680;28;20021;-76
2022/04/30 01:03:11;;;;;;;6.65;4.43;;;;;;;7.50;67.59;102763.94;5225777;28;20025;-76
2022/04/30 01:05:42;;;;;;;6.57;3.93;;;;;;;7.46;67.92;102761.41;5226785;28;20033;-76
2022/04/30 01:08:13;;;;;;;7.60;3.83;;;;;;;7.70;67.21;102762.78;5226144;28;20092;-77
2022/04/30 01:10:45;;;;;;;6.53;3.80;;;;;;;7.56;67.56;102762.13;5227039;28;20040;-76
2022/04/30 01:13:18;;;;;;;6.20;4.60;;;;;;;7.31;68.70;102767.75;5254616;22;20060;-76
2022/04/30 01:15:50;;;;;;;12.37;4.33;;;;;;;7.51;68.18;102764.81;5262455;28;20840;-76
2022/04/30 01:18:22;;;;;;;7.73;4.10;;;;;;;7.30;68.95;102768.59;5246420;28;20038;-76
2022/04/30 01:20:56;;;;;;;7.37;4.80;;;;;;;7.36;69.36;102766.81;5245587;28;20021;-69
2022/04/30 01:23:28;;;;;;;7.40;3.90;;;;;;;7.55;68.59;102765.63;5247044;28;20071;-76
2022/04/30 01:26:05;;;;;;;8.03;5.13;;;;;;;7.53;68.44;102757.84;5247355;28;20033;-76
2022/04/30 01:28:38;;;;;;;8.27;4.93;;;;;;;7.28;69.78;102760.81;5246843;28;20032;-76
2022/04/30 01:39:40;;;;;;;9.80;4.53;;;;;;;7.29;69.63;102752.13;5247626;28;20045;-76
2022/04/30 01:42:11;;;;;;;6.87;4.57;;;;;;;7.10;70.60;102754.97;5246551;28;20025;-76
2022/04/30 01:44:46;;;;;;;11.73;5.43;;;;;;;7.29;69.80;102743.44;5248470;28;20037;-76
2022/04/30 01:47:18;;;;;;;10.67;5.13;;;;;;;7.06;71.12;102747.25;5250732;28;20025;-76
2022/04/30 01:49:50;;;;;;;8.87;5.23;;;;;;;6.96;71.26;102751.72;5250957;28;20036;-76
2022/04/30 01:52:21;;;;;;;9.60;4.73;;;;;;;6.99;71.46;102754.28;5251566;28;20559;-76
2022/04/30 01:54:53;;;;;;;6.27;4.83;;;;;;;6.96;71.66;102731.75;5251059;28;20092;-76
2022/04/30 01:57:28;;;;;;;10.97;6.27;;;;;;;6.90;71.96;102744.84;5251058;28;20121;-76
2022/04/30 02:00:02;;;;;;;10.90;5.00;;;;;;;7.00;71.79;102749.06;5249249;28;20032;-76
2022/04/30 02:02:37;;;;;;;13.00;5.70;;;;;;;7.07;71.03;102749.81;5250375;28;20611;-76
2022/04/30 02:05:09;;;;;;;8.37;4.57;;;;;;;6.91;71.63;102744.00;5250808;28;20537;-76
2022/04/30 02:07:49;;;;;;;9.17;5.60;;;;;;;6.94;71.79;102733.53;5266649;28;20102;-76
2022/04/30 02:10:21;;;;;;;8.90;5.23;;;;;;;6.77;72.95;102742.41;5250907;28;20511;-76
2022/04/30 02:12:53;;;;;;;9.73;4.60;;;;;;;6.77;72.64;102726.78;5249457;28;20433;-76
2022/04/30 02:15:26;;;;;;;10.70;5.23;;;;;;;6.56;72.93;102732.28;5248939;28;20024;-76
2022/04/30 02:17:58;;;;;;;9.37;6.17;;;;;;;6.76;72.60;102735.50;5249769;28;20438;-77
2022/04/30 02:20:34;;;;;;;7.33;5.10;;;;;;;6.61;73.22;102736.56;5251407;28;20028;-76
2022/04/30 02:23:08;;;;;;;6.47;4.60;;;;;;;6.69;72.85;102736.44;5264944;28;20029;-76
2022/04/30 02:25:39;;;;;;;10.13;6.07;;;;;;;6.42;73.64;102728.09;5251220;28;20056;-76
2022/04/30 02:28:10;;;;;;;15.07;5.90;;;;;;;6.50;73.82;102728.88;5250102;28;20158;-76
2022/04/30 02:30:43;;;;;;;13.50;5.50;;;;;;;6.51;73.48;102730.56;5266071;28;20108;-76
2022/04/30 02:33:16;;;;;;;8.50;5.20;;;;;;;6.61;72.90;102728.75;5249206;28;20037;-77
2022/04/30 02:35:47;;;;;;;7.50;5.57;;;;;;;6.28;74.18;102729.09;5250258;28;20037;-76
2022/04/30 02:38:19;;;;;;;9.60;6.47;;;;;;;6.34;74.22;102711.69;5265041;28;20041;-76
2022/04/30 02:40:51;;;;;;;10.83;6.07;;;;;;;6.22;74.47;102710.09;5249398;28;20079;-76
2022/04/30 02:43:26;;;;;;;9.87;5.77;;;;;;;6.49;73.38;102702.84;5250530;28;20421;-75
2022/04/30 02:45:58;;;;;;;12.03;6.13;;;;;;;6.34;74.40;102720.38;5249836;28;20036;-76
2022/04/30 02:48:29;;;;;;;9.53;4.97;;;;;;;6.35;74.30;102716.03;5249754;28;20548;-76
2022/04/30 02:51:00;;;;;;;10.43;6.43;;;;;;;6.20;75.29;102722.25;5249784;28;20048;-76
2022/04/30 02:53:32;;;;;;;9.13;5.73;;;;;;;6.14;75.26;102718.00;5249788;28;20100;-76
2022/04/30 02:56:04;;;;;;;11.30;5.67;;;;;;;6.11;75.97;102711.06;5248632;28;20025;-76
2022/04/30 03:01:27;;;;;;;7.97;6.10;;;;;;;6.23;75.24;102704.88;5249604;28;20037;-76
2022/04/30 03:03:58;;;;;;;10.50;6.67;;;;;;;6.36;75.15;102715.16;5248851;28;20376;-76
2022/04/30 03:06:34;;;;;;;10.03;6.20;;;;;;;6.31;75.46;102712.59;5248609;28;20586;-76
2022/04/30 03:09:05;;;;;;;9.43;6.57;;;;;;;6.21;75.96;102719.66;5249698;28;20052;-76
2022/04/30 03:11:37;;;;;;;8.93;6.40;;;;;;;6.29;75.70;102714.34;5249658;28;20052;-76
2022/04/30 03:14:08;;;;;;;13.50;6.67;;;;;;;6.21;76.04;102717.06;5249764;28;20564;-76
2022/04/30 03:22:19;;;;;;;8.57;6.80;;;;;;;6.36;75.80;102710.81;5249518;28;20013;-77
2022/04/30 03:24:51;;;;;;;16.93;7.10;;;;;;;6.62;73.97;102712.22;5249234;28;20528;-75
2022/04/30 03:27:22;;;;;;;11.67;7.37;;;;;;;6.47;75.15;102717.63;5247961;28;20025;-76
2022/04/30 03:29:53;;;;;;;13.60;7.30;;;;;;;6.18;76.08;102709.25;5248952;28;20062;-76
2022/04/30 03:32:25;;;;;;;12.23;6.83;;;;;;;6.24;76.46;102709.22;5248642;28;20040;-76
2022/04/30 03:34:56;;;;;;;14.67;7.53;;;;;;;6.16;76.56;102703.25;5248793;28;20050;-77
2022/04/30 03:37:27;;;;;;;10.53;7.57;;;;;;;6.22;76.51;102697.97;5247952;28;20031;-76
2022/04/30 03:39:59;;;;;;;9.67;6.60;;;;;;;6.16;77.06;102696.28;5264138;28;20052;-76
2022/04/30 03:42:30;;;;;;;11.33;7.10;;;;;;;6.05;77.01;102690.34;5249361;28;20027;-76
2022/04/30 03:45:04;;;;;;;11.63;7.27;;;;;;;6.01;77.79;102699.88;5248388;28;20104;-76
2022/04/30 03:47:37;;;;;;;12.27;7.00;;;;;;;5.90;77.07;102694.78;5230578;28;20154;-77
2022/04/30 03:50:08;;;;;;;11.37;7.37;;;;;;;6.02;76.90;102696.41;5263494;28;20025;-76
2022/04/30 03:52:40;;;;;;;10.37;7.67;;;;;;;5.97;77.66;102694.75;5249026;28;20029;-76
2022/04/30 03:55:14;;;;;;;15.87;8.97;;;;;;;5.99;77.08;102699.03;5248406;28;20048;-76
2022/04/30 03:57:45;;;;;;;11.88;7.22;;;;;;;6.19;76.39;102685.00;5248681;28;20081;-71
2022/04/30 04:00:17;;;;;;;16.30;9.17;;;;;;;5.91;77.41;102685.25;5248886;28;20021;-76
2022/04/30 04:02:49;;;;;;;13.10;7.70;;;;;;;6.12;76.57;102689.41;5247864;28;20056;-76
2022/04/30 04:05:20;;;;;;;10.37;7.93;;;;;;;5.89;77.42;102700.00;5248943;28;20605;-76
2022/04/30 04:07:51;;;;;;;14.67;8.13;;;;;;;6.06;76.69;102692.06;5246344;28;20025;-76
2022/04/30 04:10:23;;;;;;;16.00;9.00;;;;;;;6.03;76.91;102703.34;5247275;28;20021;-76
2022/04/30 04:17:37;;;;;;;12.07;7.87;;;;;;;5.85;77.74;102703.53;5248214;28;20025;-76
2022/04/30 04:18:51;;;;;;;14.17;8.33;;;;;;;5.68;77.96;102701.94;5245392;28;20155;-76
2022/04/30 04:21:23;;;;;;;16.77;8.33;;;;;;;5.76;78.32;102700.13;5248295;28;20032;-76
2022/04/30 04:26:44;;;;;;;15.33;9.40;;;;;;;5.72;78.31;102697.56;5248037;28;20036;-76
2022/04/30 04:29:16;;;;;;;14.40;9.13;;;;;;;5.52;78.49;102696.00;5248449;28;20028;-76
2022/04/30 04:31:47;;;;;;;13.13;7.83;;;;;;;5.88;77.67;102700.91;5246819;28;20482;-76
2022/04/30 04:34:18;;;;;;;12.03;8.23;;;;;;;5.92;77.59;102705.16;5248190;28;20545;-76
2022/04/30 04:36:50;;;;;;;12.13;7.50;;;;;;;5.73;78.21;102713.16;5247046;28;20029;-76
2022/04/30 04:39:21;;;;;;;16.43;8.53;;;;;;;5.68;79.09;102713.22;5248474;28;20087;-76
2022/04/30 04:41:52;;;;;;;11.27;8.97;;;;;;;5.94;78.10;102711.22;5246632;28;20052;-76
2022/04/30 04:44:23;;;;;;;12.83;8.90;;;;;;;5.61;79.79;102708.06;5247483;28;20036;-77
2022/04/30 04:46:55;;;;;;;12.67;9.10;;;;;;;5.92;78.70;102710.38;5246858;28;20075;-76
2022/04/30 04:49:27;;;;;;;17.97;8.47;;;;;;;5.96;78.49;102716.41;5247654;28;20032;-76
2022/04/30 04:52:01;;;;;;;11.40;8.67;;;;;;;6.01;78.29;102720.69;5248061;28;20020;-76
2022/04/30 04:54:32;;;;;;;13.23;8.43;;;;;;;5.98;78.50;102718.13;5247568;28;20029;-76
2022/04/30 04:57:03;;;;;;;14.87;9.20;;;;;;;5.83;79.29;102726.94;5248108;28;20087;-76
2022/04/30 04:59:35;;;;;;;12.00;8.83;;;;;;;6.01;78.46;102723.28;5248206;28;20100;-76
2022/04/30 05:02:06;;;;;;;12.40;8.67;;;;;;;6.01;78.67;102725.91;5245924;28;20024;-76
2022/04/30 05:04:37;;;;;;;13.80;8.47;;;;;;;6.02;78.87;102727.59;5247976;28;20083;-76
2022/04/30 05:07:09;;;;;;;14.03;9.37;;;;;;;5.80;79.79;102727.84;5245728;28;20052;-76
2022/04/30 05:09:41;;;;;;;13.73;8.63;;;;;;;5.79;80.74;102736.53;5247918;28;20028;-76
2022/04/30 05:12:12;;;;;;;14.43;9.17;;;;;;;5.76;80.61;102749.53;5246969;28;20028;-76
2022/04/30 05:14:45;;;;;;;12.90;9.13;;;;;;;6.00;79.24;102745.00;5262990;28;20048;-76
2022/04/30 05:17:17;;;;;;;11.20;7.77;;;;;;;5.89;80.67;102741.63;5245448;28;20021;-76
2022/04/30 05:19:48;;;;;;;16.60;9.30;;;;;;;5.90;80.94;102741.59;5246578;28;20032;-76
2022/04/30 05:22:20;;;;;;;14.13;9.10;;;;;;;6.10;79.73;102747.50;5245756;28;20680;-76
2022/04/30 05:24:51;;;;;;;15.70;10.23;;;;;;;5.89;81.49;102739.00;5245566;28;20025;-76
2022/04/30 05:27:22;;;;;;;12.53;9.60;;;;;;;6.14;79.75;102733.63;5247566;28;20681;-76
2022/04/30 05:29:54;;;;;;;11.87;10.57;;;;;;;6.12;80.01;102731.03;5246132;28;20529;-76
2022/04/30 05:32:25;;;;;;;15.67;10.23;;;;;;;6.01;81.72;102736.31;5246613;28;20021;-76
2022/04/30 05:34:56;;;;;;;18.60;10.10;;;;;;;6.12;81.46;102746.63;5246855;28;20061;-76
2022/04/30 05:37:27;;;;;;;15.37;10.30;;;;;;;6.22;80.90;102739.59;5246659;28;20025;-75
2022/04/30 05:39:58;;;;;;;16.67;11.57;;;;;;;6.25;80.79;102747.34;5246992;28;20032;-76
2022/04/30 05:42:30;;;;;;;18.27;10.67;;;;;;;6.30;80.74;102742.13;5247292;28;20029;-76
2022/04/30 05:45:02;;;;;;;17.17;10.53;;;;;;;6.25;80.72;102729.13;5247085;28;20033;-74
2022/04/30 05:47:33;;;;;;;14.90;9.57;;;;;;;6.38;80.67;102739.41;5245778;28;20021;-76
2022/04/30 05:50:06;;;;;;;17.63;9.73;;;;;;;6.34;81.29;102737.72;5245516;28;20029;-76
2022/04/30 05:52:37;;;;;;;14.83;10.53;;;;;;;6.24;81.74;102739.56;5247104;28;20029;-76
2022/04/30 05:55:09;;;;;;;18.43;10.30;;;;;;;6.37;81.85;102741.16;5246664;28;20103;-76
2022/04/30 05:57:41;;;;;;;12.90;10.40;;;;;;;6.38;81.54;102740.28;5247070;28;20044;-76
2022/04/30 06:00:14;;;;;;;16.37;9.93;;;;;;;6.33;82.94;102757.69;5245389;28;20024;-77
2022/04/30 06:02:46;;;;;;;12.13;9.03;;;;;;;6.53;81.43;102746.19;5244483;28;20060;-70
2022/04/30 06:05:18;;;;;;;19.53;10.73;;;;;;;6.44;82.57;102743.69;5246620;28;20021;-76
2022/04/30 06:07:50;;;;;;;14.23;10.00;;;;;;;6.49;81.88;102747.94;5247228;28;20591;-76
2022/04/30 06:10:21;;;;;;;17.33;10.57;;;;;;;6.56;81.26;102742.69;5246411;28;20595;-77
2022/04/30 06:12:52;;;;;;;24.63;10.67;;;;;;;6.67;81.65;102758.19;5246391;28;20194;-76
2022/04/30 06:15:23;;;;;;;13.50;10.30;;;;;;;6.69;80.59;102745.97;5246697;28;20025;-76
2022/04/30 06:17:55;;;;;;;17.27;9.10;;;;;;;6.52;83.38;102747.94;5244214;28;20025;-76
2022/04/30 06:20:26;;;;;;;21.13;9.20;;;;;;;6.76;81.16;102755.44;5245490;28;20120;-75
2022/04/30 06:22:58;;;;;;;14.60;9.73;;;;;;;6.61;81.07;102720.06;5245995;28;20029;-76
2022/04/30 06:25:29;;;;;;;14.23;10.00;;;;;;;6.71;82.09;102752.91;5247038;28;20036;-76
2022/04/30 06:28:01;;;;;;;17.07;10.60;;;;;;;6.86;81.54;102761.41;5246246;28;20541;-76
2022/04/30 06:30:33;;;;;;;14.93;9.77;;;;;;;6.83;81.77;102756.22;5247745;28;20383;-75
2022/04/30 06:33:05;;;;;;;12.57;9.13;;;;;;;6.91;81.23;102754.41;5249611;28;20536;-76
2022/04/30 06:35:37;;;;;;;16.63;9.90;;;;;;;6.96;81.74;102763.03;5249965;28;20025;-75
2022/04/30 06:38:09;;;;;;;16.00;9.30;;;;;;;6.93;82.26;102752.63;5250149;28;20659;-77
2022/04/30 06:40:40;;;;;;;13.07;9.27;;;;;;;7.05;82.27;102759.41;5250249;28;20049;-76
2022/04/30 06:43:11;;;;;;;16.03;10.27;;;;;;;7.10;82.61;102761.97;5248968;28;20097;-75
2022/04/30 06:45:43;;;;;;;14.93;8.80;;;;;;;7.16;82.20;102753.22;5250169;28;20029;-76
2022/04/30 06:48:14;;;;;;;12.70;9.27;;;;;;;7.24;82.21;102756.56;5249284;28;20085;-75
2022/04/30 06:50:45;;;;;;;16.03;8.37;;;;;;;7.34;81.20;102742.50;5250431;28;20030;-70
2022/04/30 06:58:59;;;;;;;13.30;8.50;;;;;;;7.46;80.56;102749.25;5262948;28;20045;-76
2022/04/30 07:04:14;;;;;;;11.20;8.77;;;;;;;7.71;79.05;102761.91;5250371;28;20120;-75
2022/04/30 07:06:46;;;;;;;22.17;8.93;;;;;;;7.78;79.52;102757.44;5249650;28;20115;-74
2022/04/30 07:09:18;;;;;;;14.00;8.40;;;;;;;7.98;79.25;102759.69;5250101;28;20442;-76
2022/04/30 07:11:50;;;;;;;15.30;8.77;;;;;;;8.22;78.57;102767.94;5248188;28;20037;-76
2022/04/30 07:14:21;;;;;;;11.33;8.17;;;;;;;8.50;78.29;102761.31;5249523;28;20045;-76
2022/04/30 07:16:52;;;;;;;13.40;7.93;;;;;;;8.71;76.07;102754.84;5248028;28;20098;-76
2022/04/30 07:19:23;;;;;;;14.27;7.53;;;;;;;8.95;74.33;102757.81;5264819;28;20033;-76
2022/04/30 07:21:55;;;;;;;11.83;7.93;;;;;;;9.22;73.10;102748.50;5248065;28;20032;-75
2022/04/30 07:24:27;;;;;;;12.23;7.77;;;;;;;9.51;72.01;102753.03;5249299;28;20695;-77
2022/04/30 07:26:58;;;;;;;10.60;8.00;;;;;;;9.88;70.39;102751.25;5249606;28;20029;-76
2022/04/30 07:29:29;;;;;;;12.43;7.23;;;;;;;10.32;68.61;102763.19;5249295;28;20116;-76
2022/04/30 07:32:00;;;;;;;11.00;6.80;;;;;;;10.53;65.88;102745.16;5248212;28;20033;-75
2022/04/30 07:34:32;;;;;;;13.83;6.60;;;;;;;11.07;64.62;102753.19;5248979;28;20047;-76
2022/04/30 07:37:04;;;;;;;11.37;6.73;;;;;;;11.49;63.19;102741.34;5247767;28;20029;-76
2022/04/30 07:39:35;;;;;;;7.83;5.83;;;;;;;12.06;61.78;102745.53;5249540;28;21052;-75
2022/04/30 07:42:07;;;;;;;10.57;6.07;;;;;;;12.54;59.65;102756.13;5247983;28;20075;-75
2022/04/30 07:44:39;;;;;;;9.47;5.27;;;;;;;13.10;57.86;102747.00;5249635;28;20118;-77
2022/04/30 07:47:10;;;;;;;10.97;6.27;;;;;;;13.23;56.06;102742.94;5247913;28;20542;-77
2022/04/30 07:49:41;;;;;;;9.63;4.93;;;;;;;13.22;55.37;102741.25;5248985;28;20372;-76
2022/04/30 07:52:14;;;;;;;12.00;4.53;;;;;;;13.23;55.40;102735.06;5248206;28;20689;-76
2022/04/30 07:54:45;;;;;;;8.17;4.97;;;;;;;13.37;55.40;102741.53;5249445;28;20025;-70
2022/04/30 07:57:16;;;;;;;8.87;4.53;;;;;;;13.96;54.65;102735.59;5247616;28;20036;-76
2022/04/30 07:59:48;;;;;;;8.77;4.87;;;;;;;14.65;52.68;102722.81;5247998;28;20427;-76
2022/04/30 08:02:19;;;;;;;8.47;4.43;;;;;;;15.20;51.03;102731.66;5246800;28;20513;-76
2022/04/30 08:04:50;;;;;;;8.07;4.40;;;;;;;15.59;49.27;102734.16;5248538;28;20449;-77
2022/04/30 08:07:22;;;;;;;9.00;4.10;;;;;;;16.11;48.50;102735.03;5248862;28;20130;-77
2022/04/30 08:09:53;;;;;;;7.47;4.23;;;;;;;15.42;48.51;102727.94;5247778;28;20056;-76
2022/04/30 08:12:24;;;;;;;7.03;4.33;;;;;;;15.59;48.08;102731.50;5248774;28;20033;-76
2022/04/30 08:14:56;;;;;;;6.20;4.17;;;;;;;15.00;48.43;102730.00;5248522;28;20052;-76
2022/04/30 08:17:30;;;;;;;8.17;3.30;;;;;;;15.60;49.03;102730.59;5262202;28;20037;-76
2022/04/30 08:20:02;;;;;;;6.97;3.88;;;;;;;16.43;47.78;102729.78;5248798;28;20384;-76
2022/04/30 08:22:33;;;;;;;7.60;4.00;;;;;;;16.40;45.73;102732.63;5246709;28;20022;-75
2022/04/30 08:25:05;;;;;;;6.83;3.70;;;;;;;16.60;45.61;102722.69;5246565;28;20025;-76
2022/04/30 08:27:36;;;;;;;10.60;3.70;;;;;;;17.34;44.01;102730.06;5247829;28;20021;-77
2022/04/30 08:30:09;;;;;;;5.93;3.27;;;;;;;17.28;43.04;102725.09;5248484;28;20017;-76
2022/04/30 08:32:41;;;;;;;6.77;3.60;;;;;;;17.04;42.48;102717.63;5246149;28;20056;-76
2022/04/30 08:35:12;;;;;;;4.83;2.90;;;;;;;17.38;42.86;102710.41;5247361;28;20419;-76
2022/04/30 08:37:43;;;;;;;4.63;3.23;;;;;;;17.07;42.05;102717.44;5248697;28;20051;-76
2022/04/30 08:40:15;;;;;;;8.57;4.03;;;;;;;16.60;43.85;102711.28;5246095;28;20136;-76
2022/04/30 08:42:47;;;;;;;7.90;3.30;;;;;;;16.18;44.09;102712.63;5246479;28;20029;-76
2022/04/30 08:45:22;;;;;;;8.93;4.47;;;;;;;16.09;45.19;102715.78;5247770;28;20078;-76
2022/04/30 08:47:54;;;;;;;7.20;3.37;;;;;;;15.00;47.07;102717.66;5246533;28;20025;-76
2022/04/30 08:50:26;;;;;;;8.63;4.03;;;;;;;14.86;46.91;102710.44;5247514;28;20025;-76
2022/04/30 08:52:57;;;;;;;6.80;3.90;;;;;;;14.93;47.36;102712.75;5248217;28;20024;-76
2022/04/30 08:55:28;;;;;;;10.37;4.97;;;;;;;14.56;47.83;102712.69;5246876;28;20812;-76
2022/04/30 08:58:00;;;;;;;8.37;3.93;;;;;;;14.38;49.04;102699.47;5247120;28;20042;-77
2022/04/30 09:00:39;;;;;;;7.33;4.57;;;;;;;14.37;48.39;102700.38;5248243;28;20024;-77
2022/04/30 09:03:19;;;;;;;7.60;4.73;;;;;;;14.28;49.40;102697.25;5246340;28;20585;-76
2022/04/30 09:05:50;;;;;;;9.43;4.53;;;;;;;14.45;49.90;102698.22;5247438;28;20383;-76
2022/04/30 09:08:22;;;;;;;7.63;4.50;;;;;;;14.85;48.45;102702.59;5247285;28;20031;-77
2022/04/30 09:11:04;;;;;;;4.83;3.60;;;;;;;14.95;48.30;102701.22;5247539;28;20057;-70
2022/04/30 09:13:43;;;;;;;8.47;4.03;;;;;;;14.86;48.45;102701.66;5246566;28;20102;-77
2022/04/30 09:16:23;;;;;;;6.77;3.83;;;;;;;14.52;49.23;102702.28;5245182;28;20098;-81
2022/04/30 09:19:01;;;;;;;7.23;3.53;;;;;;;14.32;49.09;102705.00;5246071;28;20036;-82
2022/04/30 09:21:34;;;;;;;7.03;3.80;;;;;;;14.12;49.71;102707.63;5246267;28;20491;-76
2022/04/30 09:24:06;;;;;;;7.73;3.90;;;;;;;13.91;50.13;102701.56;5247178;28;20458;-74
2022/04/30 09:26:39;;;;;;;9.00;3.60;;;;;;;14.07;49.21;102703.50;5245953;28;20033;-77
2022/04/30 09:29:23;;;;;;;5.90;4.33;;;;;;;14.19;49.38;102702.09;5246915;28;20480;-77
2022/04/30 09:31:55;;;;;;;7.72;4.03;;;;;;;14.13;49.57;102697.94;5246206;28;20379;-76
2022/04/30 09:37:41;;;;;;;10.93;4.03;;;;;;;13.90;49.57;102699.84;5247083;28;20041;-78
2022/04/30 09:40:12;;;;;;;7.73;4.30;;;;;;;13.77;49.25;102692.47;5247386;28;20028;-76
2022/04/30 09:42:46;;;;;;;6.67;4.33;;;;;;;13.48;50.50;102694.56;5246835;28;20021;-76
2022/04/30 09:45:36;;;;;;;9.10;4.80;;;;;;;13.80;50.48;102683.59;5247380;28;20511;-76
2022/04/30 09:53:56;;;;;;;7.67;4.33;;;;;;;13.71;50.28;102689.25;5248726;28;20048;-76
2022/04/30 09:54:02;;;;;;;6.87;3.73;;;;;;;13.43;50.88;102670.22;5246493;28;20104;-76
2022/04/30 09:56:36;;;;;;;7.10;4.10;;;;;;;13.65;49.06;102672.81;5247462;28;20021;-76
2022/04/30 09:59:10;;;;;;;6.03;3.85;;;;;;;13.83;49.86;102675.56;5246441;28;20039;-76
2022/04/30 10:01:44;;;;;;;9.10;4.30;;;;;;;13.66;48.43;102668.41;5245657;28;20022;-76
2022/04/30 10:04:17;;;;;;;8.27;3.90;;;;;;;13.94;48.46;102672.44;5246507;28;20414;-76
2022/04/30 10:06:53;;;;;;;8.47;4.80;;;;;;;14.03;48.80;102676.44;5248129;28;20133;-76
2022/04/30 10:09:29;;;;;;;5.57;4.07;;;;;;;14.26;48.36;102664.00;5250655;28;20039;-76
2022/04/30 10:12:31;;;;;;;6.07;3.93;;;;;;;14.28;48.09;102662.13;5248977;28;20047;-76
2022/04/30 10:15:15;;;;;;;6.50;3.13;;;;;;;14.15;47.72;102661.84;5250475;28;20040;-75
2022/04/30 10:17:52;;;;;;;5.93;3.15;;;;;;;14.53;45.87;102650.44;5248895;28;20025;-76
2022/04/30 10:20:34;;;;;;;7.80;3.27;;;;;;;14.51;46.25;102654.91;5250993;28;20044;-70
2022/04/30 10:23:06;;;;;;;6.07;3.47;;;;;;;14.69;45.62;102640.00;5250053;28;20029;-76
2022/04/30 10:25:49;;;;;;;4.77;3.60;;;;;;;14.79;45.49;102645.69;5251241;28;20499;-77
2022/04/30 10:28:22;;;;;;;5.57;3.67;;;;;;;14.88;45.28;102650.53;5250475;28;20520;-77
2022/04/30 10:31:00;;;;;;;5.83;3.30;;;;;;;15.11;44.38;102659.06;5249129;28;20048;-76
2022/04/30 10:33:32;;;;;;;7.60;3.37;;;;;;;15.29;43.23;102653.78;5250282;28;20056;-76
2022/04/30 10:36:06;;;;;;;12.40;5.10;;;;;;;15.17;43.87;102657.06;5248592;28;20509;-76
2022/04/30 10:38:39;;;;;;;5.72;3.08;;;;;;;15.17;42.69;102649.16;5248817;28;20043;-76
2022/04/30 10:41:11;;;;;;;7.20;3.10;;;;;;;15.02;42.40;102643.72;5250145;28;20032;-77
2022/04/30 10:43:42;;;;;;;4.43;2.80;;;;;;;14.75;41.82;102642.31;5249983;28;20017;-76
2022/04/30 10:46:14;;;;;;;4.57;2.67;;;;;;;14.76;41.78;102636.16;5249458;28;20017;-76
2022/04/30 10:48:45;;;;;;;4.03;2.50;;;;;;;14.56;42.30;102634.47;5250760;28;20495;-70
2022/04/30 10:51:31;;;;;;;8.33;3.00;;;;;;;14.67;43.49;102628.66;5250025;28;20037;-77
2022/04/30 10:54:08;;;;;;;13.53;2.90;;;;;;;14.40;43.18;102626.44;5249828;28;20017;-76
2022/04/30 10:56:40;;;;;;;3.27;2.53;;;;;;;14.75;41.93;102630.91;5250497;28;20029;-76
2022/04/30 10:59:21;;;;;;;3.80;2.93;;;;;;;14.76;42.40;102628.22;5248395;28;20060;-76
2022/04/30 11:01:53;;;;;;;6.70;2.93;;;;;;;14.80;41.24;102625.44;5248961;28;20088;-76
2022/04/30 11:04:24;;;;;;;6.33;3.00;;;;;;;15.38;41.30;102623.44;5249920;28;20025;-76
2022/04/30 11:06:58;;;;;;;6.03;3.03;;;;;;;15.71;40.00;102611.16;5249380;28;20025;-76
2022/04/30 11:09:29;;;;;;;4.47;2.83;;;;;;;16.25;39.67;102610.03;5250328;28;20037;-76
2022/04/30 11:12:01;;;;;;;4.23;2.97;;;;;;;16.03;38.70;102605.94;5247505;28;20194;-76
2022/04/30 11:14:33;;;;;;;5.87;2.90;;;;;;;16.05;38.83;102609.38;5249483;28;20057;-76
2022/04/30 11:17:04;;;;;;;6.80;3.30;;;;;;;16.29;38.46;102600.13;5247582;28;20068;-76
2022/04/30 11:19:43;;;;;;;4.07;2.33;;;;;;;16.66;38.36;102603.34;5249581;28;20057;-76
2022/04/30 11:22:14;;;;;;;3.90;2.80;;;;;;;16.37;38.51;102589.97;5249115;28;20460;-77
2022/04/30 11:24:46;;;;;;;8.63;3.93;;;;;;;16.36;38.34;102584.78;5247834;28;20435;-76
2022/04/30 11:27:17;;;;;;;5.47;2.70;;;;;;;16.15;38.22;102583.28;5249777;28;20028;-76
2022/04/30 11:29:53;;;;;;;6.10;2.50;;;;;;;16.32;37.48;102579.66;5248630;28;20029;-76
2022/04/30 11:32:30;;;;;;;6.50;2.97;;;;;;;16.21;37.67;102572.34;5248747;28;20013;-76
2022/04/30 11:35:04;;;;;;;5.70;2.80;;;;;;;16.34;37.27;102576.94;5248379;28;20024;-75
2022/04/30 11:37:40;;;;;;;6.60;3.50;;;;;;;16.18;36.76;102577.81;5249167;28;20080;-76
2022/04/30 11:40:12;;;;;;;8.67;3.53;;;;;;;16.44;37.36;102572.81;5248607;28;20021;-76
2022/04/30 11:42:43;;;;;;;5.77;3.43;;;;;;;16.27;37.64;102570.28;5249603;28;20029;-77
2022/04/30 11:45:23;;;;;;;4.83;2.97;;;;;;;16.48;36.86;102567.38;5247279;28;20083;-76
2022/04/30 11:47:59;;;;;;;4.10;2.60;;;;;;;16.19;36.35;102561.03;5248091;28;20040;-75
2022/04/30 11:50:31;;;;;;;4.77;3.10;;;;;;;16.00;36.06;102560.34;5248579;28;20115;-76
2022/04/30 11:53:02;;;;;;;5.30;2.57;;;;;;;16.29;36.82;102557.84;5249177;28;20609;-76
2022/04/30 11:55:37;;;;;;;7.20;3.30;;;;;;;16.54;36.74;102565.22;5249931;28;20025;-76
2022/04/30 11:58:09;;;;;;;10.97;4.17;;;;;;;16.03;38.47;102552.25;5249659;28;20037;-76
2022/04/30 12:00:40;;;;;;;9.83;4.60;;;;;;;16.15;39.25;102566.56;5247976;28;20025;-75
2022/04/30 12:03:11;;;;;;;8.83;5.10;;;;;;;15.75;40.36;102556.38;5247274;28;20047;-75
2022/04/30 12:05:43;;;;;;;7.50;3.83;;;;;;;15.73;40.09;102562.59;5248602;28;20044;-76
2022/04/30 12:08:14;;;;;;;5.83;4.40;;;;;;;15.77;40.55;102560.66;5248243;28;20061;-76
2022/04/30 12:10:55;;;;;;;11.33;4.00;;;;;;;15.78;41.05;102564.16;5248688;28;20029;-75
2022/04/30 12:13:26;;;;;;;5.80;3.70;;;;;;;15.44;41.20;102561.53;5248423;28;20075;-76
2022/04/30 12:16:07;;;;;;;6.97;4.30;;;;;;;15.43;41.30;102570.41;5247480;28;20138;-75
2022/04/30 12:24:43;;;;;;;5.87;4.23;;;;;;;15.47;42.13;102556.94;5248422;28;20037;-76
2022/04/30 12:27:23;;;;;;;10.13;4.53;;;;;;;15.20;42.51;102560.09;5246711;28;20029;-75
2022/04/30 12:30:05;;;;;;;7.13;4.30;;;;;;;15.17;42.46;102555.00;5246191;28;20028;-76
2022/04/30 12:32:54;;;;;;;6.00;4.27;;;;;;;15.20;42.60;102554.81;5262609;28;20033;-76
2022/04/30 12:35:31;;;;;;;7.70;3.83;;;;;;;14.97;42.84;102551.63;5248166;28;20029;-75
2022/04/30 12:38:13;;;;;;;8.73;4.37;;;;;;;15.17;42.63;102549.72;5262469;28;20043;-77